Time;durP1;ratioP1;P1;durP2;ratioP2;P2;SDS_P1;SDS_P2;PMS_P1;PMS_P2;Temp;Humidity;BMP_temperature;BMP_pressure;BME280_temperature;BME280_humidity;BME280_pressure;Samples;Min_cycle;Max_cycle;Signal;HPM_P1;HPM_P2
2021/12/06 01:32:59;;;;;;;76.20;31.95;;;;;;;-0.07;100.00;93269.94;4925034;23;20382;-85
2021/12/06 01:40:04;;;;;;;78.18;32.90;;;;;;;-0.24;100.00;93267.25;4906559;29;20101;-85
2021/12/06 01:42:30;;;;;;;72.75;31.08;;;;;;;-0.31;100.00;93267.38;4932240;29;20032;-85
2021/12/06 01:44:58;;;;;;;50.45;20.58;;;;;;;-0.27;100.00;93260.00;4901186;29;20358;-85
2021/12/06 01:47:29;;;;;;;48.78;20.52;;;;;;;-0.27;100.00;93260.00;4885314;29;20039;-86
2021/12/06 01:50:17;;;;;;;36.08;16.52;;;;;;;-0.25;100.00;93253.63;4885302;29;20036;-86
2021/12/06 01:52:58;;;;;;;43.72;19.65;;;;;;;-0.32;100.00;93252.94;4900647;29;20350;-86
2021/12/06 01:55:32;;;;;;;57.33;22.45;;;;;;;-0.36;100.00;93254.41;4869973;29;20442;-86
2021/12/06 01:58:00;;;;;;;54.80;23.85;;;;;;;-0.50;100.00;93267.53;4900516;29;20039;-85
2021/12/06 02:00:29;;;;;;;61.97;27.35;;;;;;;-0.59;100.00;93256.00;4900934;29;20111;-86
2021/12/06 02:02:55;;;;;;;67.40;29.02;;;;;;;-0.76;100.00;93259.25;4900679;29;20088;-86
2021/12/06 02:05:21;;;;;;;49.33;22.85;;;;;;;-0.60;100.00;93268.09;4900194;29;20029;-86
2021/12/06 02:07:46;;;;;;;56.08;24.27;;;;;;;-0.59;100.00;93271.44;4900395;29;20084;-85
2021/12/06 02:10:12;;;;;;;51.50;23.25;;;;;;;-0.59;100.00;93263.72;4900624;29;20486;-86
2021/12/06 02:12:38;;;;;;;66.88;28.75;;;;;;;-0.69;100.00;93255.81;4901924;29;20036;-85
2021/12/06 02:15:18;;;;;;;59.75;26.90;;;;;;;-0.73;100.00;93260.59;4900207;29;20033;-86
2021/12/06 02:17:53;;;;;;;72.80;30.08;;;;;;;-0.87;100.00;93257.44;4900787;29;20107;-86
2021/12/06 02:20:25;;;;;;;68.80;32.15;;;;;;;-0.98;100.00;93256.44;4900705;29;20126;-86
2021/12/06 02:22:51;;;;;;;89.90;35.17;;;;;;;-1.01;100.00;93256.91;4885808;29;20052;-86
2021/12/06 02:25:18;;;;;;;91.43;36.58;;;;;;;-1.00;100.00;93259.25;4900404;29;20040;-85
2021/12/06 02:30:29;;;;;;;85.90;37.15;;;;;;;-0.83;100.00;93250.06;4900367;29;20046;-85
2021/12/06 02:32:55;;;;;;;78.57;32.83;;;;;;;-0.84;100.00;93254.47;4869342;29;20032;-85
2021/12/06 02:35:22;;;;;;;79.75;34.20;;;;;;;-0.72;100.00;93252.66;4900532;29;20465;-85
2021/12/06 02:37:49;;;;;;;76.63;32.63;;;;;;;-0.85;100.00;93255.47;4900499;29;20442;-85
2021/12/06 02:40:27;;;;;;;80.53;34.53;;;;;;;-0.80;100.00;93250.41;4900214;29;20056;-85
2021/12/06 02:43:11;;;;;;;79.85;34.08;;;;;;;-0.86;100.00;93256.47;4900113;29;20072;-85
2021/12/06 02:45:56;;;;;;;78.07;33.45;;;;;;;-0.76;100.00;93250.75;4884728;29;20024;-85
2021/12/06 02:48:22;;;;;;;67.80;28.77;;;;;;;-0.77;100.00;93259.50;4900257;29;20071;-85
2021/12/06 02:50:50;;;;;;;65.28;27.45;;;;;;;-0.96;100.00;93256.22;4900058;29;20075;-86
2021/12/06 02:53:17;;;;;;;66.97;28.27;;;;;;;-0.95;100.00;93250.09;4900246;29;20055;-85
2021/12/06 02:55:43;;;;;;;56.38;24.77;;;;;;;-0.94;100.00;93247.28;4884699;29;20033;-86
2021/12/06 02:58:20;;;;;;;62.55;25.08;;;;;;;-0.84;100.00;93243.38;4900259;29;20037;-85
2021/12/06 03:00:50;;;;;;;68.32;27.42;;;;;;;-0.75;100.00;93254.91;4900354;29;20433;-85
2021/12/06 03:03:34;;;;;;;65.07;26.77;;;;;;;-0.88;100.00;93256.69;4901315;29;20024;-85
2021/12/06 03:06:00;;;;;;;71.05;27.95;;;;;;;-0.90;100.00;93252.75;4900211;29;20028;-85
2021/12/06 03:08:48;;;;;;;63.20;24.98;;;;;;;-0.93;100.00;93254.00;4901422;29;20036;-85
2021/12/06 03:11:27;;;;;;;54.67;24.17;;;;;;;-1.01;100.00;93252.53;4884978;29;20076;-85
2021/12/06 03:13:54;;;;;;;59.65;24.85;;;;;;;-1.16;100.00;93258.09;4900127;29;20070;-85
2021/12/06 03:16:20;;;;;;;61.72;26.08;;;;;;;-1.23;100.00;93257.41;4900060;29;20434;-85
2021/12/06 03:18:46;;;;;;;69.35;28.05;;;;;;;-1.26;100.00;93260.44;4904569;29;20043;-85
2021/12/06 03:21:13;;;;;;;62.85;25.40;;;;;;;-1.12;100.00;93263.59;4903767;29;20045;-86
2021/12/06 03:23:39;;;;;;;64.18;27.48;;;;;;;-1.00;100.00;93258.47;4903618;29;20047;-85
2021/12/06 03:26:06;;;;;;;60.47;24.60;;;;;;;-0.89;100.00;93262.03;4903204;29;20501;-85
2021/12/06 03:31:39;;;;;;;53.75;23.13;;;;;;;-0.97;100.00;93268.28;4904415;29;20601;-85
2021/12/06 03:34:06;;;;;;;49.00;22.60;;;;;;;-1.03;100.00;93262.25;4903443;29;20028;-85
2021/12/06 03:36:35;;;;;;;50.05;20.85;;;;;;;-1.14;100.00;93263.03;4903476;29;20476;-85
2021/12/06 03:39:06;;;;;;;57.42;22.27;;;;;;;-1.18;100.00;93269.59;4903458;29;20115;-85
2021/12/06 03:41:32;;;;;;;53.75;23.25;;;;;;;-1.21;100.00;93270.06;4903689;29;20447;-85
2021/12/06 03:43:59;;;;;;;57.03;24.30;;;;;;;-1.28;100.00;93275.28;4887496;29;20064;-85
2021/12/06 03:46:27;;;;;;;55.17;24.25;;;;;;;-1.27;100.00;93278.66;4903252;29;20514;-86
2021/12/06 03:48:53;;;;;;;57.60;24.00;;;;;;;-1.19;100.00;93273.97;4918606;29;20037;-85
2021/12/06 03:51:18;;;;;;;61.70;25.27;;;;;;;-1.23;100.00;93277.22;4902975;29;20353;-86
2021/12/06 03:53:47;;;;;;;52.00;22.50;;;;;;;-1.06;100.00;93274.78;4903017;29;20040;-86
2021/12/06 03:56:33;;;;;;;54.78;23.92;;;;;;;-1.15;100.00;93280.25;4894260;29;20508;-85
2021/12/06 03:59:00;;;;;;;54.38;20.95;;;;;;;-1.14;100.00;93284.38;4906077;29;20464;-85
2021/12/06 04:04:10;;;;;;;56.95;24.17;;;;;;;-1.14;100.00;93293.88;4905508;29;20084;-85
2021/12/06 04:06:38;;;;;;;53.75;23.08;;;;;;;-1.18;100.00;93297.88;4921710;29;20036;-85
2021/12/06 04:09:05;;;;;;;51.00;20.27;;;;;;;-1.19;100.00;93302.25;4915791;29;20036;-85
2021/12/06 04:11:31;;;;;;;51.03;21.77;;;;;;;-1.22;100.00;93302.69;4905825;29;20070;-85
2021/12/06 04:13:57;;;;;;;52.95;20.45;;;;;;;-1.19;100.00;93306.59;4905629;29;20390;-85
2021/12/06 04:16:22;;;;;;;41.33;18.45;;;;;;;-1.18;100.00;93303.81;4921609;29;20032;-85
2021/12/06 04:18:49;;;;;;;46.40;18.83;;;;;;;-1.16;100.00;93303.56;4921317;29;20040;-85
2021/12/06 04:21:16;;;;;;;46.97;19.80;;;;;;;-1.22;100.00;93300.13;4921591;29;20036;-85
2021/12/06 04:23:41;;;;;;;49.13;18.98;;;;;;;-1.18;100.00;93305.59;4921306;29;20398;-85
2021/12/06 04:26:07;;;;;;;40.92;16.85;;;;;;;-1.14;100.00;93309.31;4921427;29;20095;-86
2021/12/06 04:28:35;;;;;;;41.05;16.90;;;;;;;-1.11;100.00;93319.16;4920952;29;20044;-85
2021/12/06 04:31:02;;;;;;;33.88;15.75;;;;;;;-1.05;100.00;93314.91;4921075;29;20032;-85
2021/12/06 04:33:28;;;;;;;31.77;13.55;;;;;;;-0.97;100.00;93318.94;4920899;29;20111;-85
2021/12/06 04:35:53;;;;;;;30.40;14.00;;;;;;;-0.96;100.00;93305.84;4921318;29;20076;-86
2021/12/06 04:38:18;;;;;;;31.55;13.85;;;;;;;-0.92;100.00;93313.91;4921279;29;20036;-85
2021/12/06 04:40:44;;;;;;;33.33;14.50;;;;;;;-0.94;100.00;93313.38;4919580;29;20121;-85
2021/12/06 04:43:10;;;;;;;36.97;14.20;;;;;;;-0.97;100.00;93313.81;4920632;29;20032;-85
2021/12/06 04:45:37;;;;;;;38.20;15.75;;;;;;;-1.02;100.00;93325.53;4887677;29;20040;-85
2021/12/06 04:48:04;;;;;;;38.25;15.43;;;;;;;-1.14;100.00;93319.59;4905066;29;20108;-85
2021/12/06 04:50:32;;;;;;;44.92;18.88;;;;;;;-1.11;100.00;93323.50;4920947;29;20040;-85
2021/12/06 04:53:04;;;;;;;43.88;18.25;;;;;;;-1.14;100.00;93320.34;4920473;29;20393;-85
2021/12/06 04:55:41;;;;;;;49.05;18.85;;;;;;;-1.29;100.00;93333.63;4920988;29;20046;-86
2021/12/06 04:58:26;;;;;;;47.00;18.58;;;;;;;-1.27;100.00;93340.34;4905099;29;20027;-85
2021/12/06 05:01:05;;;;;;;51.05;20.08;;;;;;;-1.34;100.00;93351.47;4921642;29;20039;-85
2021/12/06 05:03:32;;;;;;;47.83;20.05;;;;;;;-1.34;100.00;93351.47;4904980;29;20038;-86
2021/12/06 05:06:01;;;;;;;52.47;21.75;;;;;;;-1.30;100.00;93355.16;4921506;29;20079;-86
2021/12/06 05:08:49;;;;;;;53.15;21.60;;;;;;;-1.25;100.00;93362.22;4904896;29;20091;-84
2021/12/06 05:11:15;;;;;;;47.22;20.63;;;;;;;-1.16;100.00;93362.69;4919220;29;20080;-85
2021/12/06 05:13:44;;;;;;;47.72;17.77;;;;;;;-1.06;100.00;93359.63;4917957;29;20044;-85
2021/12/06 05:16:10;;;;;;;45.05;17.50;;;;;;;-1.01;100.00;93355.38;4921626;29;20097;-86
2021/12/06 05:18:35;;;;;;;37.20;15.95;;;;;;;-0.95;100.00;93360.66;4918503;29;20036;-85
2021/12/06 05:21:01;;;;;;;35.05;14.40;;;;;;;-0.81;100.00;93364.59;4920380;29;20059;-85
2021/12/06 05:23:26;;;;;;;28.60;12.43;;;;;;;-0.69;100.00;93367.19;4904540;29;20032;-85
2021/12/06 05:28:42;;;;;;;30.92;13.43;;;;;;;-0.45;100.00;93373.13;4920189;29;20092;-85
2021/12/06 05:31:15;;;;;;;35.28;13.90;;;;;;;-0.41;100.00;93380.44;4920219;29;20048;-85
2021/12/06 05:33:42;;;;;;;;;;;;;;;-0.44;100.00;93381.66;4911481;29;20407;-85
2021/12/06 05:36:08;;;;;;;41.97;17.10;;;;;;;-0.49;100.00;93386.69;4901306;29;19946;-85
2021/12/06 05:38:35;;;;;;;37.22;15.70;;;;;;;-0.48;100.00;93399.31;4885569;29;20481;-85
2021/12/06 05:41:01;;;;;;;36.05;16.60;;;;;;;-0.51;100.00;93399.78;4900338;29;20033;-85
2021/12/06 05:43:26;;;;;;;35.45;13.48;;;;;;;-0.45;100.00;93405.81;4902224;29;20041;-85
2021/12/06 05:45:52;;;;;;;29.77;12.85;;;;;;;-0.36;100.00;93399.34;4901087;29;20044;-85
2021/12/06 05:48:18;;;;;;;26.67;12.20;;;;;;;-0.25;100.00;93397.00;4900998;29;20044;-86
2021/12/06 05:50:45;;;;;;;23.67;10.90;;;;;;;-0.22;100.00;93396.53;4900950;29;20087;-84
2021/12/06 05:53:29;;;;;;;25.30;11.75;;;;;;;-0.18;100.00;93393.28;4900871;29;20036;-84
2021/12/06 05:55:55;;;;;;;23.92;10.98;;;;;;;-0.23;100.00;93392.41;4920998;29;20036;-84
2021/12/06 05:58:23;;;;;;;24.20;10.75;;;;;;;-0.23;100.00;93400.91;4921040;29;20035;-84
2021/12/06 06:03:33;;;;;;;23.35;11.65;;;;;;;-0.29;100.00;93409.50;4919504;29;20087;-85
2021/12/06 06:05:58;;;;;;;26.13;12.05;;;;;;;-0.32;100.00;93409.97;4919627;29;20032;-85
2021/12/06 06:08:25;;;;;;;29.77;13.48;;;;;;;-0.32;100.00;93425.41;4919170;29;20505;-84
2021/12/06 06:10:51;;;;;;;30.58;14.68;;;;;;;-0.42;100.00;93438.81;4919574;29;20040;-85
2021/12/06 06:13:17;;;;;;;29.17;13.57;;;;;;;-0.40;100.00;93431.66;4902571;29;20498;-84
2021/12/06 06:15:43;;;;;;;35.15;14.70;;;;;;;-0.41;100.00;93434.47;4915811;29;20036;-85
2021/12/06 06:18:08;;;;;;;28.70;13.00;;;;;;;-0.34;100.00;93428.22;4903855;29;20028;-86
2021/12/06 06:20:45;;;;;;;32.70;13.77;;;;;;;-0.24;100.00;93435.38;4903538;29;20036;-86
2021/12/06 06:25:54;;;;;;;27.67;12.52;;;;;;;-0.16;100.00;93445.34;4906145;29;20500;-86
2021/12/06 06:28:20;;;;;;;28.08;12.07;;;;;;;-0.10;100.00;93440.34;4903247;29;20106;-86
2021/12/06 06:30:45;;;;;;;23.80;10.90;;;;;;;-0.08;100.00;93438.31;4920173;29;20361;-86
2021/12/06 06:33:11;;;;;;;20.63;10.23;;;;;;;-0.02;100.00;93429.69;4920541;29;20043;-86
2021/12/06 06:35:37;;;;;;;22.73;10.45;;;;;;;0.03;100.00;93437.53;4903204;29;20040;-86
2021/12/06 06:38:22;;;;;;;26.02;11.23;;;;;;;-0.07;100.00;93432.94;4887987;29;20452;-86
2021/12/06 06:40:48;;;;;;;27.67;12.18;;;;;;;0.01;100.00;93444.72;4920299;29;20079;-86
2021/12/06 06:43:14;;;;;;;29.35;12.18;;;;;;;0.05;100.00;93440.66;4887649;29;20024;-86
2021/12/06 06:48:26;;;;;;;34.70;14.60;;;;;;;0.03;100.00;93455.56;4920827;29;20350;-86
2021/12/06 06:50:51;;;;;;;32.13;13.40;;;;;;;0.07;100.00;93455.88;4912064;29;20040;-86
2021/12/06 06:53:17;;;;;;;29.55;13.32;;;;;;;0.04;100.00;93454.56;4922932;29;20027;-86
2021/12/06 06:55:42;;;;;;;32.67;13.73;;;;;;;0.01;100.00;93465.31;4923035;29;20040;-86
2021/12/06 06:58:07;;;;;;;25.45;11.80;;;;;;;0.06;100.00;93469.75;4924084;29;20445;-86
2021/12/06 07:00:35;;;;;;;28.13;11.80;;;;;;;0.10;100.00;93476.06;4922657;29;20036;-86
2021/12/06 07:03:03;;;;;;;27.45;12.02;;;;;;;0.17;100.00;93489.59;4923989;29;20036;-86
2021/12/06 07:05:29;;;;;;;25.40;11.45;;;;;;;0.18;100.00;93478.28;4922533;29;20448;-86
2021/12/06 07:07:55;;;;;;;27.13;11.75;;;;;;;0.22;100.00;93479.44;4922421;29;20072;-86
2021/12/06 07:10:23;;;;;;;24.02;10.75;;;;;;;0.30;100.00;93486.03;4924026;29;20361;-86
2021/12/06 07:12:51;;;;;;;16.35;8.00;;;;;;;0.37;100.00;93486.69;4907082;29;20028;-86
2021/12/06 07:15:24;;;;;;;22.75;10.05;;;;;;;0.34;100.00;93486.34;4923594;29;20032;-85
2021/12/06 07:17:51;;;;;;;19.33;9.98;;;;;;;0.26;100.00;93488.28;4922681;29;20035;-85
2021/12/06 07:20:17;;;;;;;23.25;10.65;;;;;;;0.34;100.00;93494.88;4906916;29;20035;-86
2021/12/06 07:22:44;;;;;;;18.83;8.45;;;;;;;0.34;100.00;93484.56;4922562;29;20088;-86
2021/12/06 07:25:11;;;;;;;20.35;9.65;;;;;;;0.36;100.00;93490.28;4906644;29;20028;-85
2021/12/06 07:27:36;;;;;;;20.83;9.63;;;;;;;0.30;100.00;93496.34;4922382;29;20039;-85
2021/12/06 07:32:48;;;;;;;20.23;9.90;;;;;;;0.17;100.00;93499.91;4923330;29;20042;-85
2021/12/06 07:35:15;;;;;;;22.02;9.65;;;;;;;0.22;100.00;93499.25;4906235;29;20028;-86
2021/12/06 07:37:41;;;;;;;22.80;10.05;;;;;;;0.40;100.00;93512.00;4906586;29;20024;-86
2021/12/06 07:40:25;;;;;;;20.33;9.25;;;;;;;0.62;100.00;93511.44;4921957;29;20418;-86
2021/12/06 07:42:51;;;;;;;20.25;9.25;;;;;;;0.74;100.00;93510.66;4921800;29;20394;-86
2021/12/06 07:45:17;;;;;;;23.65;9.35;;;;;;;0.83;100.00;93514.44;4922131;29;20036;-86
2021/12/06 07:48:01;;;;;;;15.80;7.60;;;;;;;0.94;100.00;93513.63;4921697;29;20150;-86
2021/12/06 07:50:26;;;;;;;15.77;7.18;;;;;;;0.93;100.00;93516.44;4922020;29;20028;-87
2021/12/06 07:52:53;;;;;;;18.35;7.95;;;;;;;0.96;100.00;93518.56;4906173;29;20323;-87
2021/12/06 07:55:20;;;;;;;17.77;8.27;;;;;;;1.11;100.00;93525.81;4906500;29;20079;-86
2021/12/06 07:57:46;;;;;;;18.88;8.10;;;;;;;1.24;100.00;93520.41;4921977;29;20315;-86
2021/12/06 08:00:19;;;;;;;17.45;7.90;;;;;;;1.33;100.00;93528.56;4921842;29;20047;-86
2021/12/06 08:02:45;;;;;;;19.80;8.45;;;;;;;1.27;100.00;93527.66;4905112;29;20032;-86
2021/12/06 08:05:30;;;;;;;16.65;7.68;;;;;;;1.41;100.00;93535.16;4906035;29;20344;-86
2021/12/06 08:08:02;;;;;;;14.90;7.88;;;;;;;1.29;100.00;93534.41;4921656;29;20115;-86
2021/12/06 08:10:28;;;;;;;15.95;7.15;;;;;;;1.13;100.00;93534.09;4905994;29;20038;-86
2021/12/06 08:12:54;;;;;;;18.40;8.30;;;;;;;1.26;100.00;93523.53;4921528;29;20044;-86
2021/12/06 08:15:19;;;;;;;14.75;7.18;;;;;;;1.18;100.00;93517.94;4921581;29;20040;-86
2021/12/06 08:17:45;;;;;;;18.85;9.10;;;;;;;1.32;100.00;93533.97;4921413;29;20040;-87
2021/12/06 08:20:29;;;;;;;19.58;8.52;;;;;;;1.16;100.00;93543.19;4921461;29;20465;-87
2021/12/06 08:22:55;;;;;;;19.25;7.95;;;;;;;1.02;100.00;93545.25;4921295;29;20028;-86
2021/12/06 08:25:21;;;;;;;22.23;9.32;;;;;;;1.04;100.00;93553.56;4921484;29;20101;-87
2021/12/06 08:27:46;;;;;;;20.27;9.00;;;;;;;1.10;100.00;93552.63;4921254;29;20122;-86
2021/12/06 08:30:13;;;;;;;18.60;8.82;;;;;;;0.85;100.00;93548.50;4922494;29;20032;-86
2021/12/06 08:35:26;;;;;;;19.27;7.97;;;;;;;0.77;100.00;93572.09;4921161;29;20357;-87
2021/12/06 08:38:10;;;;;;;17.77;8.38;;;;;;;0.62;100.00;93575.09;4921210;29;20064;-86
2021/12/06 08:40:38;;;;;;;18.02;8.60;;;;;;;0.66;100.00;93578.81;4919320;29;20123;-86
2021/12/06 08:43:04;;;;;;;17.55;8.82;;;;;;;0.66;100.00;93579.59;4920647;29;20445;-86
2021/12/06 08:45:29;;;;;;;20.38;9.30;;;;;;;0.72;100.00;93579.69;4905305;29;20032;-86
2021/12/06 08:47:56;;;;;;;17.60;9.57;;;;;;;0.81;100.00;93583.50;4921972;29;20034;-86
2021/12/06 08:50:40;;;;;;;15.85;8.48;;;;;;;0.88;100.00;93584.19;4922215;29;20119;-86
2021/12/06 08:53:24;;;;;;;19.92;9.13;;;;;;;0.98;100.00;93575.88;4921786;29;20028;-86
2021/12/06 08:55:51;;;;;;;21.58;9.98;;;;;;;0.92;100.00;93580.16;4920732;29;20036;-86
2021/12/06 08:58:35;;;;;;;21.75;9.70;;;;;;;0.95;100.00;93587.41;4920635;29;20028;-86
2021/12/06 09:01:01;;;;;;;21.33;9.88;;;;;;;1.12;100.00;93602.22;4920709;29;20524;-86
2021/12/06 09:03:27;;;;;;;20.42;9.80;;;;;;;1.26;100.00;93608.69;4904492;29;20334;-86
2021/12/06 09:05:54;;;;;;;19.67;9.45;;;;;;;1.50;100.00;93606.06;4920788;29;20065;-86
2021/12/06 09:08:40;;;;;;;17.05;8.73;;;;;;;1.54;100.00;93606.41;4920196;29;20024;-86
2021/12/06 09:11:24;;;;;;;19.83;8.77;;;;;;;1.81;100.00;93616.97;4920547;29;20036;-87
2021/12/06 09:13:50;;;;;;;24.95;8.80;;;;;;;1.86;100.00;93613.69;4921912;29;20106;-87
2021/12/06 09:16:15;;;;;;;15.25;7.80;;;;;;;1.78;100.00;93622.59;4920742;29;20119;-86
2021/12/06 09:18:43;;;;;;;17.15;8.10;;;;;;;1.81;100.00;93629.88;4920556;29;20044;-87
2021/12/06 09:21:12;;;;;;;18.85;9.05;;;;;;;1.82;100.00;93636.59;4920478;29;20163;-87
2021/12/06 09:23:38;;;;;;;19.17;8.38;;;;;;;1.87;100.00;93635.16;4920631;29;20036;-87
2021/12/06 09:26:05;;;;;;;16.13;8.25;;;;;;;1.88;100.00;93639.31;4901180;29;20350;-86
2021/12/06 09:28:31;;;;;;;16.25;8.30;;;;;;;2.01;100.00;93641.63;4913832;29;20031;-86
2021/12/06 09:30:57;;;;;;;16.08;8.02;;;;;;;2.08;100.00;93642.25;4916676;29;20068;-86
2021/12/06 09:33:24;;;;;;;15.52;7.85;;;;;;;2.16;100.00;93645.50;4919767;29;20040;-87
2021/12/06 09:35:50;;;;;;;18.88;9.10;;;;;;;2.08;100.00;93639.66;4904738;29;20032;-86
2021/12/06 09:38:20;;;;;;;17.25;8.65;;;;;;;2.07;100.00;93647.63;4889018;29;20106;-86
2021/12/06 09:40:49;;;;;;;16.77;8.18;;;;;;;2.26;100.00;93656.78;4919690;29;20460;-86
2021/12/06 09:43:38;;;;;;;21.95;8.68;;;;;;;2.33;100.00;93648.09;4920042;29;20032;-86
2021/12/06 09:46:04;;;;;;;16.88;8.32;;;;;;;2.23;100.00;93648.69;4921211;29;20433;-87
2021/12/06 09:48:30;;;;;;;16.65;8.25;;;;;;;2.59;100.00;93651.88;4919921;29;20028;-87
2021/12/06 09:50:59;;;;;;;18.75;8.70;;;;;;;2.63;100.00;93658.16;4919948;29;20050;-86
2021/12/06 09:53:28;;;;;;;17.60;8.60;;;;;;;2.73;100.00;93660.09;4920947;29;20043;-87
2021/12/06 09:55:56;;;;;;;17.85;7.43;;;;;;;2.49;100.00;93656.88;4919909;29;20066;-86
2021/12/06 09:58:22;;;;;;;17.25;8.35;;;;;;;2.74;100.00;93666.09;4919095;29;20031;-85
2021/12/06 10:01:01;;;;;;;15.32;8.10;;;;;;;2.53;100.00;93668.31;4904138;29;20035;-86
2021/12/06 10:03:29;;;;;;;18.75;9.00;;;;;;;2.82;100.00;93668.25;4903710;29;20123;-86
2021/12/06 10:06:14;;;;;;;17.20;8.80;;;;;;;2.83;100.00;93668.03;4904354;29;20118;-86
2021/12/06 10:08:44;;;;;;;18.10;8.40;;;;;;;2.78;100.00;93669.75;4888310;29;20036;-86
2021/12/06 10:13:56;;;;;;;16.27;8.70;;;;;;;2.89;100.00;93650.78;4898922;29;20035;-86
2021/12/06 10:16:22;;;;;;;17.00;8.95;;;;;;;2.40;100.00;93654.66;4888199;29;20032;-86
2021/12/06 10:18:48;;;;;;;19.33;8.27;;;;;;;2.57;100.00;93655.72;4903671;29;20035;-86
2021/12/06 10:21:15;;;;;;;16.92;8.48;;;;;;;2.64;100.00;93658.91;4920458;29;20039;-87
2021/12/06 10:23:59;;;;;;;15.63;7.53;;;;;;;2.52;100.00;93664.16;4903647;29;20032;-86
2021/12/06 10:26:45;;;;;;;16.85;7.90;;;;;;;2.58;100.00;93659.88;4920199;29;20051;-86
2021/12/06 10:29:20;;;;;;;18.92;7.97;;;;;;;2.61;100.00;93667.94;4903761;29;20047;-86
2021/12/06 10:31:46;;;;;;;17.33;8.30;;;;;;;2.67;100.00;93666.22;4903546;29;20352;-86
2021/12/06 10:34:17;;;;;;;15.55;7.95;;;;;;;2.99;100.00;93664.88;4903682;29;20047;-86
2021/12/06 10:36:42;;;;;;;14.13;7.53;;;;;;;2.81;100.00;93669.28;4903661;29;20091;-86
2021/12/06 10:42:14;;;;;;;19.02;7.20;;;;;;;2.86;100.00;93664.19;4905917;29;20089;-86
2021/12/06 10:44:50;;;;;;;15.10;7.53;;;;;;;2.85;100.00;93660.03;4920160;29;20036;-86
2021/12/06 10:47:15;;;;;;;13.00;6.90;;;;;;;2.96;100.00;93661.75;4903658;29;20122;-86
2021/12/06 10:49:47;;;;;;;16.98;8.55;;;;;;;2.93;100.00;93664.00;4887634;29;20231;-86
2021/12/06 10:52:23;;;;;;;14.63;7.05;;;;;;;2.77;100.00;93663.78;4920209;29;20035;-86
2021/12/06 10:54:52;;;;;;;15.50;6.85;;;;;;;2.80;100.00;93668.50;4903482;29;20453;-86
2021/12/06 10:57:19;;;;;;;18.52;8.10;;;;;;;2.55;100.00;93658.53;4903863;29;20088;-86
2021/12/06 10:59:45;;;;;;;14.15;6.95;;;;;;;2.45;100.00;93669.50;4903248;29;20330;-86
2021/12/06 11:02:11;;;;;;;13.95;7.45;;;;;;;2.47;100.00;93671.84;4887869;29;20087;-86
2021/12/06 11:04:37;;;;;;;17.60;7.47;;;;;;;2.51;100.00;93666.00;4903353;29;20151;-86
2021/12/06 11:07:08;;;;;;;11.40;5.95;;;;;;;2.45;100.00;93663.56;4903349;29;20067;-86
2021/12/06 11:09:42;;;;;;;15.65;7.22;;;;;;;2.60;100.00;93668.16;4903965;29;20468;-86
2021/12/06 11:12:18;;;;;;;13.43;6.90;;;;;;;2.99;100.00;93662.28;4903447;29;20087;-86
2021/12/06 11:14:44;;;;;;;14.68;6.82;;;;;;;2.97;100.00;93663.31;4903197;29;20036;-86
2021/12/06 11:17:28;;;;;;;12.68;6.50;;;;;;;3.36;100.00;93662.53;4920274;29;20456;-86
2021/12/06 11:19:54;;;;;;;13.15;6.22;;;;;;;3.33;100.00;93668.22;4920498;29;20039;-86
2021/12/06 11:22:41;;;;;;;10.73;5.30;;;;;;;3.62;100.00;93662.88;4903064;29;20040;-86
2021/12/06 11:25:09;;;;;;;14.25;6.65;;;;;;;3.41;100.00;93664.41;4900337;29;20063;-86
2021/12/06 11:27:57;;;;;;;12.15;7.32;;;;;;;2.75;100.00;93663.25;4898095;29;20028;-86
2021/12/06 11:33:45;;;;;;;10.90;5.55;;;;;;;2.59;100.00;93659.66;4900957;29;20040;-86
2021/12/06 11:36:25;;;;;;;11.82;5.55;;;;;;;2.94;100.00;93656.03;4900168;29;20044;-86
2021/12/06 11:38:57;;;;;;;12.13;5.93;;;;;;;3.33;100.00;93657.09;4902134;29;20032;-86
2021/12/06 11:41:23;;;;;;;11.07;6.00;;;;;;;3.56;100.00;93657.88;4903067;29;20039;-86
2021/12/06 11:43:49;;;;;;;13.98;5.88;;;;;;;3.57;100.00;93659.44;4903196;29;20036;-86
2021/12/06 11:46:44;;;;;;;13.75;5.68;;;;;;;3.42;100.00;93657.44;4902888;29;20048;-86
2021/12/06 11:49:18;;;;;;;10.93;5.32;;;;;;;3.41;100.00;93661.84;4904357;29;20048;-86
2021/12/06 11:51:43;;;;;;;9.73;5.22;;;;;;;3.33;100.00;93660.44;4905284;29;20092;-86
2021/12/06 11:54:09;;;;;;;11.80;5.45;;;;;;;3.52;100.00;93657.59;4921967;29;20115;-86
2021/12/06 11:56:42;;;;;;;13.23;5.05;;;;;;;3.16;100.00;93655.31;4922053;29;20109;-86
2021/12/06 11:59:08;;;;;;;10.18;5.13;;;;;;;3.03;100.00;93656.41;4922067;29;20036;-86
2021/12/06 12:01:44;;;;;;;3.92;2.03;;;;;;;2.82;100.00;93655.31;4921690;29;20056;-87
2021/12/06 12:04:25;;;;;;;4.25;1.90;;;;;;;2.73;100.00;93656.75;4921730;29;20032;-87
2021/12/06 12:07:03;;;;;;;3.85;2.10;;;;;;;2.72;100.00;93658.53;4906067;29;20039;-87
2021/12/06 12:09:47;;;;;;;3.95;2.20;;;;;;;2.74;100.00;93655.72;4906180;29;20040;-86
2021/12/06 12:12:25;;;;;;;3.80;2.28;;;;;;;2.91;100.00;93655.72;4905911;29;20032;-86
2021/12/06 12:14:57;;;;;;;6.88;2.65;;;;;;;3.31;100.00;93659.13;4921433;29;20119;-86
2021/12/06 12:20:17;;;;;;;6.32;1.98;;;;;;;3.01;100.00;93652.47;4903747;29;20055;-86
2021/12/06 12:22:49;;;;;;;4.65;2.30;;;;;;;3.04;100.00;93647.63;4902550;29;20434;-86
2021/12/06 12:25:22;;;;;;;3.47;1.67;;;;;;;3.21;100.00;93657.16;4903794;29;20087;-86
2021/12/06 12:27:57;;;;;;;4.43;2.10;;;;;;;3.33;100.00;93652.66;4918174;29;20064;-86
2021/12/06 12:30:41;;;;;;;4.28;1.63;;;;;;;3.73;100.00;93653.44;4902264;29;20440;-86
2021/12/06 12:33:08;;;;;;;3.92;1.50;;;;;;;3.99;100.00;93647.75;4903574;29;20350;-86
2021/12/06 12:35:36;;;;;;;3.17;1.20;;;;;;;3.93;100.00;93649.50;4902329;29;20032;-86
2021/12/06 12:38:02;;;;;;;2.78;1.30;;;;;;;4.06;100.00;93661.28;4903309;29;20025;-87
2021/12/06 12:40:51;;;;;;;2.55;1.17;;;;;;;3.99;100.00;93661.47;4902381;29;20036;-87
2021/12/06 12:43:19;;;;;;;1.38;0.90;;;;;;;3.88;100.00;93659.81;4886836;29;20024;-86
2021/12/06 12:45:51;;;;;;;2.03;0.90;;;;;;;3.79;100.00;93662.81;4902020;29;20025;-86
2021/12/06 12:48:23;;;;;;;0.85;0.50;;;;;;;3.55;98.32;93670.06;4897437;29;20438;-86
2021/12/06 12:51:07;;;;;;;2.78;0.80;;;;;;;3.22;100.00;93661.31;4905223;29;20036;-86
2021/12/06 12:54:09;;;;;;;1.70;1.15;;;;;;;3.51;100.00;93664.56;4922024;29;20346;-86
2021/12/06 12:59:34;;;;;;;3.80;0.70;;;;;;;3.62;97.21;93662.09;4902038;29;20411;-86
2021/12/06 13:02:11;;;;;;;1.38;0.95;;;;;;;3.53;96.83;93664.34;4902978;29;20028;-86
2021/12/06 13:04:58;;;;;;;1.05;0.50;;;;;;;3.50;85.89;93669.97;4908209;29;20496;-86
2021/12/06 13:07:39;;;;;;;1.77;0.70;;;;;;;3.50;78.35;93663.00;4902722;29;20028;-85
2021/12/06 13:10:38;;;;;;;0.73;0.50;;;;;;;3.65;82.23;93669.38;4902783;29;20037;-85
2021/12/06 13:13:20;;;;;;;5.57;2.38;;;;;;;3.51;87.25;93661.97;4881217;29;20332;-85
2021/12/06 13:16:58;;;;;;;2.37;0.90;;;;;;;3.56;100.00;93663.06;4902937;29;20036;-85
2021/12/06 13:21:36;;;;;;;5.43;2.83;;;;;;;3.25;100.00;93659.03;4901270;29;20036;-85
2021/12/06 13:24:10;;;;;;;8.27;2.70;;;;;;;3.29;100.00;93653.38;4886084;29;20033;-85
2021/12/06 13:26:37;;;;;;;5.15;2.90;;;;;;;3.50;100.00;93662.19;4902675;29;20068;-86
2021/12/06 13:29:08;;;;;;;5.32;2.70;;;;;;;3.56;100.00;93658.66;4901098;29;20041;-86
2021/12/06 13:31:34;;;;;;;11.65;2.90;;;;;;;3.46;100.00;93661.13;4902641;29;20043;-85
2021/12/06 13:34:22;;;;;;;5.18;2.65;;;;;;;3.51;100.00;93661.97;4901597;29;20028;-86
2021/12/06 13:36:53;;;;;;;5.03;2.55;;;;;;;3.63;100.00;93661.84;4902083;29;20049;-86
2021/12/06 13:39:36;;;;;;;4.88;2.85;;;;;;;3.61;100.00;93669.09;4901191;29;20033;-86
2021/12/06 13:42:34;;;;;;;6.13;2.83;;;;;;;3.64;100.00;93663.41;4916692;29;20088;-85
2021/12/06 13:45:01;;;;;;;6.03;2.42;;;;;;;3.54;100.00;93671.06;4901914;29;20084;-85
2021/12/06 13:47:29;;;;;;;5.07;2.67;;;;;;;3.47;100.00;93668.66;4916617;29;20084;-86
2021/12/06 13:50:11;;;;;;;12.75;4.40;;;;;;;3.58;100.00;93668.78;4916738;29;20119;-86
2021/12/06 13:52:38;;;;;;;63.42;28.02;;;;;;;3.57;100.00;93670.59;4916534;29;20025;-86
2021/12/06 13:55:27;;;;;;;5.95;2.92;;;;;;;3.68;100.00;93674.09;4900801;29;20028;-86